Terminal Aerodrome Forecast
Issued by NWS Buffalo, NY

Home | Current Version | Previous Version | Text Only | Print | Product List | Glossary On
Versions: 1 2 3 4 5 6 7 8 9 10 11 12 13 14 15 16 17 18 19 20 21 22 23 24 25 26 27 28 29 30
394
FTUS41 KBUF 261747 RRA
TAFART
TAF
KART 261747Z 2618/2718 09006KT P6SM BKN025
     FM261900 09006KT P6SM BKN035
     FM270000 VRB03KT P6SM OVC025 WS020/17030KT
     FM270600 00000KT 6SM -RA OVC020 WS020/17035KT
     FM271400 21005KT P6SM VCSH OVC015=

USA.gov is the U.S. government's official web portal to all federal, state and local government web resources and services.